Impacts TAF Board INFO
FOR SITUATIONAL AWARENESS. NOT TO BE USED FOR FLIGHT PLANNING PURPOSES.
IDs:

KSTL - St Louis/Lambert Int, MO, US

Issued at 1739 UTC 23 Mar 2017
Updated at 2002 UTC 23 Mar 2017
Potential Impact None Slight Moderate High
Time1951Z 23/21Z 23/22Z 23/23Z 24/00Z 24/01Z 24/02Z 24/03Z 24/04Z 24/05Z 24/06Z 24/07Z 24/08Z 24/09Z
Type OBS PRVL PRVL PRVL PRVL PRVL PRVL PRVL PRVL PRVL PRVL PRVL PRVL PRVL
VIS 10 >6 >6 >6 >6 >6 >6 >6 >6 >6 >6 >6 >6 >6
CIG 80 -- -- -- -- -- -- -- -- -- -- -- -- --
Cover BKN SCT SCT SCT SCT SCT SCT FEW FEW FEW FEW FEW FEW FEW
FltCat VFR VFR VFR VFR VFR VFR VFR VFR VFR VFR VFR VFR VFR VFR
WX -- -- -- -- -- -- -- -- -- -- -- -- -- --
WDir 140 140 140 140 140 140 140 160 160 160 160 160 160 160
WSpd 12 12 12 12 12 12 12 11 11 11 11 11 11 11
WGst -- -- -- -- -- -- -- 17 17 17 17 17 17 17

Raw TAF
KSTL 231739Z 2318/2424 13009KT P6SM BKN060
  FM232000 14012KT P6SM SCT200
  FM240300 16011G17KT P6SM FEW130 WS020/19045KT
  FM241400 18012G18KT P6SM BKN040
  FM241700 18016G26KT P6SM BKN040


Raw METAR
KSTL 231951Z 14012KT 10SM FEW060 BKN080 BKN200 12/04 A3014 RMK AO2 SLP209 T01170039
KSTL 231851Z 13016KT 10SM SCT050 BKN075 BKN200 09/03 A3017 RMK AO2 SLP221 T00890028
KSTL 231751Z 13015KT 10SM OVC046 08/03 A3022 RMK AO2 SLP239 60008 T00780033 10078 20039 58025

METAR Board
Radar Display
Forecast Discussion

FOR SITUATIONAL AWARENESS. NOT TO BE USED FOR FLIGHT PLANNING PURPOSES.

Page loaded:  20:02 UTC  |   01:02 PM Pacific  |   02:02 PM Mountain  |   03:02 PM Central  |   04:02 PM Eastern

 

ADVISORIES

FORECASTS

FORECASTS

OBSERVATIONS

USER TOOLS

ABOUT US